Aérodrome :
LOGIN :

S'inscrire | Disclaimer

   EN    FR    IT 

 










Légende :    VFR   VFR Marginal   IFR   IFR Intensif   IFR Très Intensif
Visi : 
Plafond : 
>= 8 km
>= 3000ft
5 à 8 km
1000 à 3000 ft
1500m à 5 km
500 à 1000 ft
800 à 1500m
200 à 500 ft
< 800m
< 200 ft
Symboles :   Orages  Brouillard  Fortes neiges  Fortes précipitations  Vent > 20 kt
SIGMETs :   Divers  Orages  Givrage  Turbulence  Onde Orograph.  Cendres Volcan.






- Altitude de l'aérodrome : 17 ft
- Code IATA : KLR


ESMQ - Kalmar

DERNIER METAR :
  • 290620Z 00000KT 9999 0700SE R16/P1500N R34/0900N BCFG NSC 06/06 Q1017

METARs EXPIRÉS :
  • 290550Z VRB01KT 0350 R16/P1500D R34/0600N VV002 04/04 Q1017
  • 290520Z 32002KT 0100 R16/0450N R34/0250N FG VV002 04/04 Q1017
  • 290450Z 33002KT 0150 R16/0400N R34/0450N FG VV002 03/03 Q1016
  • 290420Z 33002KT 0300 R16/1100N R34/1400N FG VV002 03/03 Q1016
  • 290350Z 32003KT 0300 R16/0900N R34/1300N FG VV002 04/04 Q1016

TAF TAF ESMQ
Valide du 29 à 06h jusqu'au 29 à 15h UTC


290530Z 2906/2915 VRB02KT 0200 FG VV002
BECMG 2906/2908 9999 NSW SCT025



MET'MAP, la Météo Aéronautique d'un coup d'oeil ! - Copyright ORBIFLY Décembre 2007 - Disclaimer

ORBIFLY MET'MAP TEAM :

Programmation & Développement : Alexandra Zaïnal
Sur une idée originale de : Baudouin d'Aumeries
Assistance à la programmation : Marc-Olivier Méhu
Soutien technique & logistique : Manuel Goepfert

Contact : metmap@orbifly.com




SOURCES & CREDITS :

   NOAA